Hlavní strana
METAR-TAF:

METAR-TAF

Letiště :

Tunis, Tunisko

zeměpisná šířka: 36-50N, zeměpisná délka: 010-14E, výška: 3 m

Aktuální stav počasí

Zpráva byla vytvořena před 19 minutami, v 16:00 UTC
Východoseverovýchodní vítr 7 kt, proměnlivý mezi severním a východojihovýchodním
Teplota 16°C
Vlhkost vzduchu 63%
Tlak 1023 hPa
Viditelnost 10 km a více
Žádná oblačnost pod 1500 m, nevyskytují se cumulonimby.

METAR: DTTA 281600Z 06007KT 010V110 CAVOK 16/09 Q1023

Čas: 17:19 (16:19 UTC)

Předpověď počasí

Zpráva byla vytvořena před 5 hodinami a 19 minutami, v 11:00 UTC
Předpověď platná od 28 v 12 UTC do 01 v 12 UTC
Východoseverovýchodní vítr 10 kt
Viditelnost 10 km a více
Polojasno ve výšce 2000 ft
Změna
od 28 v 22 UTC do 28 v 24 UTC
Jihojihovýchodní vítr 3 kt
Pravděpodobnost 30% :
Dočasný
od 01 v 04 UTC do 01 v 07 UTC
Viditelnost: 3000 m
kouřmo

TAF: DTTA 281100Z 2812/0112 07010KT 9999 SCT020 BECMG 2822/2824 16003KT PROB30 TEMPO 0104/0107 3000 BR

Stav a předpovědi počasí z více než 4 000 letišť (zprávy METAR a TAF).

Červené a žluté tečky na mapě představují dostupné meteorologické stanice.

Když kurzor umístíte na tečku, zobrazí se název stanice.

Pak kliknutím zobrazíte stav a předpověď počasí.

Chcete-li změnit mapu, kliknutím na zelené tlačítko se znaménkem +mapu přiblížíte, kliknutím na zelené tlačítko se znaménkem – mapu oddálíte a kliknutím na zelené šipky přejdete na sousední mapy.


METAR-TAF: